createdAt,value
2022-09-21T00:01:08.096Z,13.30
2022-09-21T00:03:58.334Z,13.30
2022-09-21T00:06:48.031Z,13.30
2022-09-21T00:09:36.385Z,13.40
2022-09-21T00:12:24.770Z,13.30
2022-09-21T00:15:15.266Z,13.20
2022-09-21T00:18:03.930Z,13.10
2022-09-21T00:20:53.377Z,13.20
2022-09-21T00:23:43.514Z,13.60
2022-09-21T00:26:32.153Z,13.70
2022-09-21T00:29:20.539Z,13.30
2022-09-21T00:32:08.874Z,13.70
2022-09-21T00:34:57.526Z,13.30
2022-09-21T00:37:45.870Z,14.00
2022-09-21T00:40:35.584Z,13.20
2022-09-21T00:43:23.987Z,13.10
2022-09-21T00:46:16.725Z,13.10
2022-09-21T00:49:05.151Z,13.50
2022-09-21T00:51:54.268Z,13.00
2022-09-21T00:54:46.306Z,13.70
2022-09-21T00:57:37.160Z,13.00
2022-09-21T01:00:25.546Z,13.20
2022-09-21T01:03:14.503Z,13.00
2022-09-21T01:06:03.085Z,13.20
2022-09-21T01:08:54.425Z,13.00
2022-09-21T01:11:51.864Z,13.30
2022-09-21T01:15:00.002Z,13.40
2022-09-21T01:17:57.294Z,13.10
2022-09-21T01:21:18.357Z,13.20
2022-09-21T01:24:40.885Z,13.20
2022-09-21T01:27:58.310Z,13.10
2022-09-21T01:30:50.265Z,13.00
2022-09-21T01:33:42.956Z,13.00
2022-09-21T01:36:32.688Z,12.90
2022-09-21T01:39:23.498Z,12.90
2022-09-21T01:42:13.806Z,12.80
2022-09-21T01:45:04.501Z,12.90
2022-09-21T01:47:56.744Z,12.90
2022-09-21T01:50:48.868Z,12.90
2022-09-21T01:53:40.978Z,13.00
2022-09-21T01:56:34.563Z,12.90
2022-09-21T01:59:27.298Z,12.80
2022-09-21T02:02:20.253Z,12.80
2022-09-21T02:05:10.199Z,12.80
2022-09-21T02:07:59.855Z,12.80
2022-09-21T02:10:51.742Z,12.90
2022-09-21T02:13:44.605Z,12.80
2022-09-21T02:16:39.744Z,12.80
2022-09-21T02:19:36.029Z,12.80
2022-09-21T02:22:34.172Z,12.70
2022-09-21T02:25:29.688Z,12.60
2022-09-21T02:28:29.922Z,12.60
2022-09-21T02:31:27.163Z,12.60
2022-09-21T02:34:21.614Z,12.60
2022-09-21T02:37:19.536Z,12.60
2022-09-21T02:40:19.057Z,12.50
2022-09-21T02:43:12.149Z,12.50
2022-09-21T02:46:04.342Z,12.50
2022-09-21T02:48:56.114Z,12.50
2022-09-21T02:51:48.051Z,12.50
2022-09-21T02:54:38.211Z,12.60
2022-09-21T02:57:28.357Z,12.70
2022-09-21T03:00:17.302Z,12.80
2022-09-21T03:03:17.229Z,12.70
2022-09-21T03:06:05.717Z,12.70
2022-09-21T03:08:54.126Z,12.70
2022-09-21T03:11:43.284Z,12.70
2022-09-21T03:14:33.765Z,12.60
2022-09-21T03:17:22.058Z,12.50
2022-09-21T03:20:10.685Z,12.50
2022-09-21T03:22:58.984Z,12.50
2022-09-21T03:25:47.731Z,12.40
2022-09-21T03:28:36.095Z,12.40
2022-09-21T03:31:25.840Z,12.40
2022-09-21T03:34:14.182Z,12.40
2022-09-21T03:37:03.037Z,12.40
2022-09-21T03:39:51.403Z,13.00
2022-09-21T03:42:39.757Z,12.30
2022-09-21T03:45:28.259Z,12.20
2022-09-21T03:48:17.876Z,12.20
2022-09-21T03:51:06.456Z,12.30
2022-09-21T03:53:54.726Z,12.40
2022-09-21T03:56:43.000Z,12.40
2022-09-21T03:59:31.297Z,12.40
2022-09-21T04:02:19.653Z,12.50
2022-09-21T04:05:11.057Z,12.40
2022-09-21T04:08:02.022Z,12.30
2022-09-21T04:10:50.336Z,12.20
2022-09-21T04:13:38.810Z,12.20
2022-09-21T04:16:27.886Z,12.10
2022-09-21T04:19:16.639Z,12.10
2022-09-21T04:22:06.614Z,12.20
2022-09-21T04:24:54.970Z,12.20
2022-09-21T04:27:43.489Z,12.20
2022-09-21T04:30:37.511Z,12.30
2022-09-21T04:33:26.401Z,12.20
2022-09-21T04:36:14.710Z,12.20
2022-09-21T04:39:04.940Z,12.10
2022-09-21T04:41:53.425Z,12.20
2022-09-21T04:44:41.733Z,12.20
2022-09-21T04:47:31.268Z,12.20
2022-09-21T04:50:19.833Z,12.10
2022-09-21T04:53:08.141Z,12.00
2022-09-21T04:55:57.823Z,11.90
2022-09-21T04:58:46.465Z,11.90
2022-09-21T05:01:35.051Z,11.80
2022-09-21T05:04:23.343Z,11.90
2022-09-21T05:07:11.680Z,11.90
2022-09-21T05:10:06.139Z,12.00
2022-09-21T05:12:55.813Z,12.10
2022-09-21T05:15:44.247Z,12.10
2022-09-21T05:18:32.671Z,12.20
2022-09-21T05:21:21.565Z,12.20
2022-09-21T05:24:10.427Z,12.30
2022-09-21T05:26:58.739Z,12.20
2022-09-21T05:29:49.161Z,12.10
2022-09-21T05:32:46.761Z,12.10
2022-09-21T05:35:39.147Z,12.20
2022-09-21T05:38:27.903Z,12.20
2022-09-21T05:41:16.717Z,12.20
2022-09-21T05:44:05.783Z,12.20
2022-09-21T05:47:00.786Z,12.20
2022-09-21T05:50:00.666Z,12.20
2022-09-21T05:52:57.059Z,12.30
2022-09-21T05:55:55.574Z,12.20
2022-09-21T05:58:52.347Z,12.20
2022-09-21T06:01:53.452Z,12.10
2022-09-21T06:04:43.770Z,12.00
2022-09-21T06:07:32.104Z,11.90
2022-09-21T06:10:20.467Z,12.20
2022-09-21T06:13:08.795Z,12.20
2022-09-21T06:15:58.464Z,11.60
2022-09-21T06:18:46.843Z,11.70
2022-09-21T06:21:36.559Z,11.50
2022-09-21T06:24:25.321Z,11.40
2022-09-21T06:27:13.731Z,11.40
2022-09-21T06:30:02.059Z,11.30
2022-09-21T06:32:50.403Z,11.40
2022-09-21T06:35:40.332Z,11.50
2022-09-21T06:38:30.221Z,11.70
2022-09-21T06:41:21.312Z,11.50
2022-09-21T06:44:09.891Z,11.50
2022-09-21T06:46:58.580Z,11.40
2022-09-21T06:49:46.957Z,11.50
2022-09-21T06:52:35.352Z,11.50
2022-09-21T06:55:25.157Z,11.50
2022-09-21T06:58:13.481Z,11.50
2022-09-21T07:01:07.500Z,11.50
2022-09-21T07:03:55.889Z,11.60
2022-09-21T07:06:44.229Z,12.10
2022-09-21T07:12:42.429Z,11.70
2022-09-21T07:15:31.191Z,12.00
2022-09-21T07:18:19.533Z,12.70
2022-09-21T07:21:09.305Z,12.10
2022-09-21T07:24:00.422Z,12.20
2022-09-21T07:26:49.387Z,12.40
2022-09-21T07:29:39.665Z,12.40
2022-09-21T07:32:28.112Z,12.60
2022-09-21T07:35:16.528Z,12.70
2022-09-21T07:38:06.817Z,12.80
2022-09-21T07:40:55.216Z,12.80
2022-09-21T07:43:43.856Z,12.80
2022-09-21T07:46:33.717Z,12.80
2022-09-21T07:49:22.064Z,12.80
2022-09-21T07:52:11.183Z,12.90
2022-09-21T07:54:59.701Z,12.90
2022-09-21T07:58:08.601Z,13.10
2022-09-21T08:00:57.053Z,13.00
2022-09-21T08:03:49.583Z,13.20
2022-09-21T08:06:40.150Z,13.40
2022-09-21T08:09:28.738Z,13.70
2022-09-21T08:12:18.856Z,14.10
2022-09-21T08:15:16.487Z,14.40
2022-09-21T08:18:13.533Z,14.70
2022-09-21T08:21:03.263Z,15.10
2022-09-21T08:23:51.750Z,15.80
2022-09-21T08:26:40.726Z,16.60
2022-09-21T08:29:30.319Z,17.30
2022-09-21T08:32:39.309Z,17.70
2022-09-21T08:35:27.008Z,18.70
2022-09-21T08:38:16.644Z,19.70
2022-09-21T08:41:16.343Z,20.40
2022-09-21T08:44:11.104Z,20.80
2022-09-21T08:47:07.646Z,21.70
2022-09-21T08:50:00.229Z,20.90
2022-09-21T08:52:49.423Z,21.10
2022-09-21T08:55:39.292Z,22.70
2022-09-21T08:58:29.240Z,22.10
2022-09-21T09:01:39.952Z,22.10
2022-09-21T09:04:46.909Z,22.20
2022-09-21T09:07:58.814Z,22.30
2022-09-21T09:10:57.545Z,22.20
2022-09-21T09:14:03.047Z,22.80
2022-09-21T09:17:06.321Z,22.90
2022-09-21T09:20:01.218Z,23.30
2022-09-21T09:23:00.744Z,23.40
2022-09-21T09:25:52.907Z,23.30
2022-09-21T09:28:50.119Z,23.60
2022-09-21T09:31:43.340Z,23.60
2022-09-21T09:34:36.585Z,23.70
2022-09-21T09:37:34.932Z,23.90
2022-09-21T09:40:34.403Z,24.00
2022-09-21T09:43:43.243Z,24.40
2022-09-21T09:46:37.847Z,23.90
2022-09-21T09:49:38.486Z,24.60
2022-09-21T09:52:27.818Z,23.50
2022-09-21T09:55:20.279Z,24.30
2022-09-21T09:58:18.768Z,24.50
2022-09-21T10:01:08.653Z,24.30
2022-09-21T10:04:07.141Z,24.10
2022-09-21T10:06:55.641Z,23.20
2022-09-21T10:09:44.033Z,23.00
2022-09-21T10:12:32.512Z,23.40
2022-09-21T10:15:22.668Z,24.30
2022-09-21T10:18:22.285Z,24.60
2022-09-21T10:21:18.691Z,25.00
2022-09-21T10:24:13.827Z,25.20
2022-09-21T10:27:10.418Z,25.20
2022-09-21T10:29:58.795Z,25.50
2022-09-21T10:32:56.985Z,25.70
2022-09-21T10:35:52.543Z,25.30
2022-09-21T10:38:40.888Z,25.70
2022-09-21T10:41:29.590Z,25.90
2022-09-21T10:44:19.564Z,25.70
2022-09-21T10:47:22.944Z,25.70
2022-09-21T10:50:24.191Z,26.00
2022-09-21T10:53:20.901Z,26.30
2022-09-21T10:56:18.876Z,26.60
2022-09-21T10:59:23.734Z,26.40
2022-09-21T11:02:46.628Z,26.40
2022-09-21T11:05:39.165Z,26.30
2022-09-21T11:08:35.096Z,26.40
2022-09-21T11:11:39.578Z,26.90
2022-09-21T11:14:44.215Z,27.20
2022-09-21T11:17:38.849Z,27.00
2022-09-21T11:20:34.708Z,26.90
2022-09-21T11:23:34.736Z,26.70
2022-09-21T11:26:28.251Z,27.00
2022-09-21T11:29:20.989Z,27.90
2022-09-21T11:32:35.770Z,28.00
2022-09-21T11:35:42.134Z,27.80
2022-09-21T11:38:45.461Z,28.10
2022-09-21T11:41:50.145Z,28.70
2022-09-21T11:44:50.898Z,28.60
2022-09-21T11:47:50.691Z,28.80
2022-09-21T11:50:52.561Z,28.80
2022-09-21T11:54:10.675Z,29.50
2022-09-21T11:57:04.870Z,30.40
2022-09-21T12:00:11.531Z,30.60
2022-09-21T12:03:41.383Z,30.70
2022-09-21T12:06:50.737Z,30.90
2022-09-21T12:10:12.450Z,30.80
2022-09-21T12:13:07.520Z,30.90
2022-09-21T12:16:04.096Z,31.30
2022-09-21T12:19:01.445Z,31.70
2022-09-21T12:21:53.782Z,33.20
2022-09-21T12:24:47.528Z,34.30
2022-09-21T12:27:41.060Z,33.90
2022-09-21T12:30:31.866Z,33.70
2022-09-21T12:33:29.189Z,33.40
2022-09-21T12:36:21.932Z,34.30
2022-09-21T12:39:19.250Z,34.30
2022-09-21T12:42:18.507Z,34.30
2022-09-21T12:45:17.094Z,34.20
2022-09-21T12:48:14.459Z,34.10
2022-09-21T12:51:12.266Z,34.90
2022-09-21T12:54:12.876Z,35.70
2022-09-21T12:57:29.734Z,35.80
2022-09-21T13:00:22.397Z,36.50
2022-09-21T13:03:19.351Z,36.90
2022-09-21T13:06:30.831Z,37.60
2022-09-21T13:09:21.194Z,37.90
2022-09-21T13:12:15.236Z,38.00
2022-09-21T13:15:06.317Z,37.90
2022-09-21T13:18:02.302Z,37.30
2022-09-21T13:20:52.189Z,37.20
2022-09-21T13:23:42.243Z,36.20
2022-09-21T13:26:34.684Z,36.60
2022-09-21T13:29:29.746Z,37.00
2022-09-21T13:32:25.630Z,37.20
2022-09-21T13:36:03.784Z,36.60
2022-09-21T13:39:05.323Z,36.20
2022-09-21T13:42:03.135Z,35.00
2022-09-21T13:44:51.946Z,33.80
2022-09-21T13:47:42.950Z,33.40
2022-09-21T13:50:38.639Z,34.30
2022-09-21T13:53:34.182Z,34.40
2022-09-21T13:56:26.579Z,35.50
2022-09-21T13:59:24.512Z,36.70
2022-09-21T14:02:30.540Z,37.10
2022-09-21T14:05:27.645Z,36.80
2022-09-21T14:08:24.228Z,37.30
2022-09-21T14:11:19.383Z,37.10
2022-09-21T14:14:15.289Z,37.60
2022-09-21T14:17:04.744Z,39.00
2022-09-21T14:20:02.409Z,39.70
2022-09-21T14:23:28.369Z,39.90
2022-09-21T14:26:34.802Z,40.40
2022-09-21T14:29:28.205Z,38.50
2022-09-21T14:32:19.375Z,39.30
2022-09-21T14:35:13.960Z,40.00
2022-09-21T14:38:11.039Z,39.40
2022-09-21T14:41:04.003Z,39.00
2022-09-21T14:43:56.434Z,39.00
2022-09-21T14:47:12.206Z,38.10
2022-09-21T14:50:20.602Z,34.40
2022-09-21T14:53:35.634Z,31.10
2022-09-21T14:56:39.075Z,28.60
2022-09-21T14:59:47.743Z,27.00
2022-09-21T15:02:37.782Z,25.90
2022-09-21T15:05:32.495Z,25.00
2022-09-21T15:09:04.973Z,25.70
2022-09-21T15:12:01.161Z,29.20
2022-09-21T15:15:01.430Z,33.00
2022-09-21T15:17:58.605Z,34.50
2022-09-21T15:21:01.200Z,34.10
2022-09-21T15:23:53.014Z,34.60
2022-09-21T15:26:43.569Z,36.00
2022-09-21T15:29:33.702Z,35.80
2022-09-21T15:32:36.625Z,35.30
2022-09-21T15:35:27.711Z,35.00
2022-09-21T15:38:28.511Z,34.20
2022-09-21T15:41:40.499Z,32.40
2022-09-21T15:44:34.290Z,29.90
2022-09-21T15:47:26.135Z,28.10
2022-09-21T15:50:17.614Z,26.80
2022-09-21T15:53:12.187Z,25.90
2022-09-21T15:56:01.507Z,24.80
2022-09-21T15:58:50.848Z,23.80
2022-09-21T16:01:42.791Z,23.10
2022-09-21T16:04:33.821Z,22.60
2022-09-21T16:07:32.885Z,22.20
2022-09-21T16:10:41.026Z,22.00
2022-09-21T16:13:51.643Z,21.90
2022-09-21T16:17:21.875Z,21.70
2022-09-21T16:20:20.200Z,21.40
2022-09-21T16:23:15.023Z,21.30
2022-09-21T16:26:03.455Z,21.30
2022-09-21T16:28:59.182Z,21.10
2022-09-21T16:31:50.744Z,21.00
2022-09-21T16:34:39.687Z,20.90
2022-09-21T16:37:29.889Z,20.90
2022-09-21T16:40:19.861Z,20.70
2022-09-21T16:43:10.476Z,20.70
2022-09-21T16:45:59.552Z,20.70
2022-09-21T16:48:50.040Z,20.60
2022-09-21T16:51:38.533Z,20.40
2022-09-21T16:54:27.376Z,20.20
2022-09-21T16:57:17.556Z,20.20
2022-09-21T17:00:10.875Z,20.00
2022-09-21T17:02:59.242Z,19.90
2022-09-21T17:05:47.901Z,19.70
2022-09-21T17:08:37.337Z,19.80
2022-09-21T17:11:25.627Z,19.40
2022-09-21T17:14:16.302Z,19.40
2022-09-21T17:17:08.401Z,19.20
2022-09-21T17:19:56.773Z,19.10
2022-09-21T17:22:45.312Z,18.90
2022-09-21T17:25:34.697Z,19.50
2022-09-21T17:28:26.230Z,18.80
2022-09-21T17:31:17.493Z,18.70
2022-09-21T17:34:13.414Z,18.70
2022-09-21T17:37:01.705Z,18.50
2022-09-21T17:39:50.136Z,18.30
2022-09-21T17:42:41.681Z,18.20
2022-09-21T17:45:38.700Z,18.10
2022-09-21T17:48:33.894Z,18.80
2022-09-21T17:51:37.091Z,17.90
2022-09-21T17:54:25.796Z,17.90
2022-09-21T17:57:28.325Z,17.80
2022-09-21T18:00:21.583Z,17.70
2022-09-21T18:03:21.773Z,17.70
2022-09-21T18:06:12.882Z,17.60
2022-09-21T18:09:01.883Z,17.50
2022-09-21T18:12:20.387Z,17.30
2022-09-21T18:15:20.010Z,17.30
2022-09-21T18:18:16.589Z,17.30
2022-09-21T18:21:09.999Z,17.20
2022-09-21T18:24:13.628Z,17.10
2022-09-21T18:27:02.678Z,17.00
2022-09-21T18:29:51.652Z,17.10
2022-09-21T18:32:55.381Z,17.00
2022-09-21T18:35:57.382Z,16.90
2022-09-21T18:38:52.457Z,17.10
2022-09-21T18:41:50.442Z,16.80
2022-09-21T18:44:42.017Z,16.70
2022-09-21T18:47:36.206Z,16.80
2022-09-21T18:50:31.885Z,16.60
2022-09-21T18:53:28.015Z,16.60
2022-09-21T18:56:16.943Z,16.50
2022-09-21T18:59:07.227Z,16.40
2022-09-21T19:01:56.242Z,16.40
2022-09-21T19:04:45.813Z,16.40
2022-09-21T19:07:40.261Z,16.40
2022-09-21T19:10:35.338Z,16.30
2022-09-21T19:13:37.037Z,16.70
2022-09-21T19:16:34.995Z,16.10
2022-09-21T19:19:34.097Z,16.00
2022-09-21T19:22:29.889Z,16.00
2022-09-21T19:25:28.196Z,16.00
2022-09-21T19:28:36.891Z,15.90
2022-09-21T19:31:27.013Z,15.40
2022-09-21T19:34:16.901Z,16.10
2022-09-21T19:37:07.911Z,16.00
2022-09-21T19:39:56.754Z,15.90
2022-09-21T19:43:00.420Z,15.80
2022-09-21T19:46:04.423Z,16.00
2022-09-21T19:49:01.439Z,16.00
2022-09-21T19:51:51.612Z,15.90
2022-09-21T19:54:57.921Z,15.80
2022-09-21T19:58:09.681Z,15.80
2022-09-21T20:00:58.235Z,15.70
2022-09-21T20:03:48.617Z,15.70
2022-09-21T20:06:44.264Z,15.70
2022-09-21T20:09:42.148Z,15.80
2022-09-21T20:12:38.490Z,15.70
2022-09-21T20:15:33.775Z,16.00
2022-09-21T20:18:29.655Z,15.90
2022-09-21T20:21:19.242Z,15.60
2022-09-21T20:24:20.235Z,15.70
2022-09-21T20:27:21.931Z,15.60
2022-09-21T20:30:12.908Z,15.50
2022-09-21T20:33:03.451Z,15.50
2022-09-21T20:35:55.453Z,15.50
2022-09-21T20:38:44.185Z,15.40
2022-09-21T20:41:34.031Z,15.40
2022-09-21T20:44:22.459Z,15.80
2022-09-21T20:47:10.896Z,15.30
2022-09-21T20:49:59.234Z,15.40
2022-09-21T20:52:48.008Z,15.30
2022-09-21T20:55:36.443Z,15.30
2022-09-21T20:58:26.255Z,15.30
2022-09-21T21:01:14.596Z,15.40
2022-09-21T21:04:03.563Z,15.30
2022-09-21T21:06:52.223Z,15.70
2022-09-21T21:09:40.520Z,15.20
2022-09-21T21:12:28.878Z,15.10
2022-09-21T21:15:18.929Z,15.10
2022-09-21T21:18:11.171Z,15.00
2022-09-21T21:21:02.659Z,15.10
2022-09-21T21:24:09.844Z,15.00
2022-09-21T21:27:02.291Z,15.00
2022-09-21T21:29:52.982Z,15.30
2022-09-21T21:32:43.210Z,15.50
2022-09-21T21:35:32.157Z,15.00
2022-09-21T21:38:20.452Z,15.60
2022-09-21T21:41:09.073Z,14.70
2022-09-21T21:43:57.540Z,14.70
2022-09-21T21:46:45.831Z,14.60
2022-09-21T21:49:35.497Z,14.70
2022-09-21T21:52:23.858Z,14.70
2022-09-21T21:55:12.292Z,14.70
2022-09-21T21:58:00.599Z,14.80
2022-09-21T22:00:48.975Z,14.70
2022-09-21T22:03:37.603Z,14.70
2022-09-21T22:06:28.332Z,14.60
2022-09-21T22:09:18.902Z,14.60
2022-09-21T22:12:08.346Z,14.50
2022-09-21T22:14:56.658Z,14.60
2022-09-21T22:17:44.983Z,14.60
2022-09-21T22:20:33.288Z,14.60
2022-09-21T22:23:22.954Z,14.90
2022-09-21T22:26:13.148Z,14.50
2022-09-21T22:29:02.772Z,14.60
2022-09-21T22:31:51.676Z,14.60
2022-09-21T22:34:40.027Z,14.50
2022-09-21T22:37:28.385Z,14.50
2022-09-21T22:40:18.079Z,14.70
2022-09-21T22:43:06.419Z,14.40
2022-09-21T22:45:55.196Z,14.40
2022-09-21T22:48:44.160Z,14.60
2022-09-21T22:51:33.175Z,14.40
2022-09-21T22:54:21.465Z,14.40
2022-09-21T22:57:11.138Z,14.30
2022-09-21T22:59:59.431Z,14.40
2022-09-21T23:02:47.716Z,14.30
2022-09-21T23:05:36.041Z,14.80
2022-09-21T23:08:24.418Z,14.40
2022-09-21T23:11:15.074Z,14.40
2022-09-21T23:14:05.176Z,14.30
2022-09-21T23:16:53.998Z,15.10
2022-09-21T23:19:42.375Z,14.30
2022-09-21T23:22:30.663Z,14.30
2022-09-21T23:25:19.052Z,14.30
2022-09-21T23:28:07.382Z,14.40
2022-09-21T23:30:58.723Z,14.40
2022-09-21T23:33:49.132Z,14.40
2022-09-21T23:36:37.859Z,14.30
2022-09-21T23:39:26.219Z,14.50
2022-09-21T23:42:14.544Z,14.40
2022-09-21T23:45:02.864Z,14.40
2022-09-21T23:47:52.565Z,14.40
2022-09-21T23:50:41.011Z,14.40
2022-09-21T23:53:29.663Z,14.40
2022-09-21T23:56:20.833Z,14.30
2022-09-21T23:59:09.749Z,15.00
